createdAt,value
2023-01-06T00:01:14.823Z,56.13
2023-01-06T00:03:41.636Z,55.80
2023-01-06T00:06:10.517Z,55.33
2023-01-06T00:08:37.744Z,55.63
2023-01-06T00:11:11.589Z,51.20
2023-01-06T00:13:38.904Z,50.33
2023-01-06T00:16:08.382Z,49.05
2023-01-06T00:18:35.848Z,52.67
2023-01-06T00:21:03.708Z,51.40
2023-01-06T00:23:31.117Z,45.00
2023-01-06T00:25:57.736Z,45.25
2023-01-06T00:28:24.300Z,43.90
2023-01-06T00:30:51.475Z,40.30
2023-01-06T00:33:18.247Z,39.65
2023-01-06T00:35:44.920Z,41.83
2023-01-06T00:38:11.609Z,39.60
2023-01-06T00:40:38.501Z,38.28
2023-01-06T00:43:05.709Z,39.25
2023-01-06T00:45:32.389Z,38.83
2023-01-06T00:47:59.063Z,42.67
2023-01-06T00:50:25.663Z,40.33
2023-01-06T00:52:52.236Z,38.78
2023-01-06T00:55:18.795Z,38.47
2023-01-06T00:57:45.351Z,38.75
2023-01-06T01:00:12.252Z,38.70
2023-01-06T01:02:39.123Z,38.22
2023-01-06T01:05:05.925Z,40.90
2023-01-06T01:07:32.488Z,41.47
2023-01-06T01:09:59.063Z,41.28
2023-01-06T01:12:25.636Z,40.33
2023-01-06T01:14:54.213Z,40.28
2023-01-06T01:17:31.696Z,38.28
2023-01-06T01:19:59.988Z,37.03
2023-01-06T01:22:28.987Z,38.47
2023-01-06T01:24:55.576Z,37.47
2023-01-06T01:27:22.127Z,36.40
2023-01-06T01:29:48.736Z,35.95
2023-01-06T01:32:15.267Z,36.90
2023-01-06T01:34:41.847Z,36.38
2023-01-06T01:37:08.512Z,35.95
2023-01-06T01:39:35.111Z,36.33
2023-01-06T01:42:01.639Z,38.05
2023-01-06T01:44:58.261Z,37.28
2023-01-06T01:47:27.861Z,38.58
2023-01-06T01:49:58.743Z,39.00
2023-01-06T01:52:25.823Z,39.25
2023-01-06T01:54:55.482Z,41.72
2023-01-06T01:57:34.713Z,43.03
2023-01-06T02:00:03.494Z,43.60
2023-01-06T02:02:31.242Z,44.70
2023-01-06T02:04:58.153Z,45.47
2023-01-06T02:07:26.843Z,45.33
2023-01-06T02:10:02.791Z,48.75
2023-01-06T02:12:29.940Z,49.40
2023-01-06T02:14:56.501Z,50.00
2023-01-06T02:17:52.275Z,49.67
2023-01-06T02:20:27.266Z,50.92
2023-01-06T02:22:56.698Z,50.75
2023-01-06T02:25:29.231Z,52.63
2023-01-06T02:28:17.843Z,49.58
2023-01-06T02:30:56.520Z,48.72
2023-01-06T02:33:31.977Z,45.92
2023-01-06T02:36:10.836Z,46.90
2023-01-06T02:39:01.451Z,48.78
2023-01-06T02:41:41.852Z,47.55
2023-01-06T02:44:27.300Z,46.83
2023-01-06T02:47:00.376Z,46.38
2023-01-06T02:49:44.515Z,45.03
2023-01-06T02:52:26.387Z,47.07
2023-01-06T02:54:59.012Z,46.10
2023-01-06T02:57:42.594Z,48.90
2023-01-06T03:00:13.187Z,45.67
2023-01-06T03:02:42.606Z,47.10
2023-01-06T03:05:14.042Z,49.33
2023-01-06T03:07:42.234Z,51.60
2023-01-06T03:10:10.003Z,52.28
2023-01-06T03:12:54.374Z,54.80
2023-01-06T03:15:21.532Z,57.53
2023-01-06T03:17:48.351Z,55.70
2023-01-06T03:20:15.163Z,59.25
2023-01-06T03:22:42.184Z,56.97
2023-01-06T03:25:09.688Z,60.90
2023-01-06T03:27:36.541Z,62.17
2023-01-06T03:30:09.737Z,61.45
2023-01-06T03:33:15.143Z,65.80
2023-01-06T03:36:13.361Z,71.07
2023-01-06T03:38:45.404Z,73.97
2023-01-06T03:41:52.007Z,75.72
2023-01-06T03:44:29.227Z,76.22
2023-01-06T03:47:03.836Z,77.25
2023-01-06T03:52:11.739Z,77.18
2023-01-06T03:54:45.877Z,74.55
2023-01-06T03:57:46.339Z,76.43
2023-01-06T04:00:19.344Z,76.93
2023-01-06T04:02:47.031Z,73.35
2023-01-06T04:05:17.275Z,69.40
2023-01-06T04:07:44.658Z,73.57
2023-01-06T04:10:12.675Z,73.97
2023-01-06T04:12:39.668Z,74.78
2023-01-06T04:15:16.286Z,73.68
2023-01-06T04:17:44.324Z,76.00
2023-01-06T04:20:14.446Z,78.32
2023-01-06T04:22:41.713Z,85.43
2023-01-06T04:25:09.039Z,85.20
2023-01-06T04:27:35.743Z,84.88
2023-01-06T04:30:02.633Z,83.72
2023-01-06T04:32:29.355Z,81.07
2023-01-06T04:34:55.933Z,82.32
2023-01-06T04:37:22.556Z,80.75
2023-01-06T04:39:49.587Z,87.35
2023-01-06T04:42:16.339Z,85.05
2023-01-06T04:44:42.913Z,88.72
2023-01-06T04:47:10.685Z,90.07
2023-01-06T04:49:37.346Z,93.28
2023-01-06T04:52:04.652Z,92.40
2023-01-06T04:54:31.239Z,99.07
2023-01-06T04:56:57.876Z,96.13
2023-01-06T04:59:24.464Z,94.07
2023-01-06T05:01:52.451Z,102.53
2023-01-06T05:04:19.045Z,99.70
2023-01-06T05:06:45.977Z,99.22
2023-01-06T05:09:12.811Z,101.68
2023-01-06T05:11:39.532Z,102.65
2023-01-06T05:14:06.144Z,102.53
2023-01-06T05:16:34.406Z,102.35
2023-01-06T05:19:01.332Z,100.82
2023-01-06T05:21:32.292Z,99.97
2023-01-06T05:23:59.915Z,98.82
2023-01-06T05:26:27.872Z,95.35
2023-01-06T05:28:55.039Z,96.25
2023-01-06T05:31:21.609Z,97.90
2023-01-06T05:33:48.195Z,94.50
2023-01-06T05:36:17.544Z,96.97
2023-01-06T05:38:45.131Z,93.05
2023-01-06T05:41:11.805Z,93.53
2023-01-06T05:43:38.637Z,91.40
2023-01-06T05:46:10.400Z,91.95
2023-01-06T05:48:38.027Z,102.18
2023-01-06T05:51:13.879Z,101.53
2023-01-06T05:53:43.653Z,100.22
2023-01-06T05:56:12.909Z,104.82
2023-01-06T05:58:42.952Z,108.60
2023-01-06T06:01:23.141Z,106.80
2023-01-06T06:03:50.703Z,102.45
2023-01-06T06:06:18.649Z,109.40
2023-01-06T06:08:45.200Z,109.28
2023-01-06T06:11:14.515Z,103.18
2023-01-06T06:13:49.600Z,96.88
2023-01-06T06:16:18.079Z,104.25
2023-01-06T06:18:48.291Z,103.15
2023-01-06T06:21:18.478Z,101.25
2023-01-06T06:23:45.057Z,93.75
2023-01-06T06:26:12.499Z,95.57
2023-01-06T06:28:40.020Z,88.47
2023-01-06T06:31:08.963Z,86.68
2023-01-06T06:33:35.823Z,87.50
2023-01-06T06:36:03.682Z,78.93
2023-01-06T06:38:30.412Z,85.20
2023-01-06T06:40:57.423Z,83.32
2023-01-06T06:43:24.128Z,83.07
2023-01-06T06:45:50.730Z,93.20
2023-01-06T06:48:17.526Z,97.18
2023-01-06T06:50:44.290Z,98.50
2023-01-06T06:53:10.846Z,96.82
2023-01-06T06:55:37.680Z,96.78
2023-01-06T06:58:04.260Z,97.78
2023-01-06T07:00:30.952Z,101.75
2023-01-06T07:02:57.496Z,104.80
2023-01-06T07:05:25.780Z,104.03
2023-01-06T07:07:52.556Z,102.88
2023-01-06T07:10:19.286Z,98.20
2023-01-06T07:12:45.920Z,97.32
2023-01-06T07:15:12.539Z,99.13
2023-01-06T07:17:39.669Z,98.35
2023-01-06T07:20:06.527Z,100.90
2023-01-06T07:22:33.101Z,101.32
2023-01-06T07:24:59.989Z,101.63
2023-01-06T07:27:26.619Z,103.30
2023-01-06T07:29:53.169Z,103.75
2023-01-06T07:32:19.745Z,107.38
2023-01-06T07:34:46.340Z,101.68
2023-01-06T07:37:12.940Z,102.72
2023-01-06T07:39:39.559Z,103.47
2023-01-06T07:42:08.747Z,104.80
2023-01-06T07:44:35.591Z,107.75
2023-01-06T07:47:02.325Z,103.75
2023-01-06T07:49:29.404Z,99.47
2023-01-06T07:51:56.401Z,100.53
2023-01-06T07:54:23.095Z,102.45
2023-01-06T07:56:49.651Z,90.68
2023-01-06T07:59:16.227Z,95.13
2023-01-06T08:01:44.446Z,104.97
2023-01-06T08:04:11.596Z,113.50
2023-01-06T08:06:41.173Z,117.20
2023-01-06T08:09:08.236Z,134.43
2023-01-06T08:11:35.060Z,120.63
2023-01-06T08:14:01.629Z,105.35
2023-01-06T08:16:28.277Z,116.03
2023-01-06T08:18:54.871Z,81.10
2023-01-06T08:21:21.470Z,66.15
2023-01-06T08:23:48.101Z,59.83
2023-01-06T08:26:17.710Z,51.47
2023-01-06T08:28:46.085Z,36.67
2023-01-06T08:31:19.783Z,41.35
2023-01-06T08:33:47.500Z,35.20
2023-01-06T08:36:16.852Z,37.80
2023-01-06T08:38:44.097Z,41.03
2023-01-06T08:41:12.489Z,40.58
2023-01-06T08:43:41.147Z,33.05
2023-01-06T08:46:09.623Z,44.15
2023-01-06T08:48:36.369Z,32.95
2023-01-06T08:51:08.285Z,34.00
2023-01-06T08:53:35.185Z,35.35
2023-01-06T08:56:03.013Z,32.80
2023-01-06T08:58:29.644Z,35.88
2023-01-06T09:00:56.243Z,40.90
2023-01-06T09:03:22.866Z,44.75
2023-01-06T09:05:57.547Z,46.90
2023-01-06T09:08:24.957Z,45.50
2023-01-06T09:10:52.027Z,47.92
2023-01-06T09:13:18.685Z,50.03
2023-01-06T09:15:48.863Z,52.67
2023-01-06T09:18:15.968Z,56.97
2023-01-06T09:20:42.657Z,61.78
2023-01-06T09:23:09.263Z,61.47
2023-01-06T09:25:35.944Z,62.90
2023-01-06T09:28:02.694Z,66.53
2023-01-06T09:30:29.498Z,67.93
2023-01-06T09:32:56.099Z,63.10
2023-01-06T09:35:23.039Z,67.45
2023-01-06T09:37:49.797Z,74.72
2023-01-06T09:40:21.631Z,58.30
2023-01-06T09:43:12.931Z,67.95
2023-01-06T09:45:53.159Z,81.40
2023-01-06T09:48:27.544Z,80.82
2023-01-06T09:51:00.202Z,78.65
2023-01-06T09:53:38.669Z,87.40
2023-01-06T09:56:15.123Z,75.90
2023-01-06T09:58:55.288Z,84.43
2023-01-06T10:01:30.811Z,76.18
2023-01-06T10:03:58.434Z,85.20
2023-01-06T10:06:30.657Z,74.00
2023-01-06T10:09:19.713Z,81.88
2023-01-06T10:11:46.266Z,85.88
2023-01-06T10:14:29.522Z,97.80
2023-01-06T10:17:05.067Z,85.10
2023-01-06T10:19:59.724Z,98.47
2023-01-06T10:22:52.015Z,87.28
2023-01-06T10:25:27.532Z,84.80
2023-01-06T10:28:02.357Z,87.10
2023-01-06T10:30:52.677Z,82.72
2023-01-06T10:33:22.250Z,75.95
2023-01-06T10:35:49.527Z,73.82
2023-01-06T10:38:17.098Z,78.68
2023-01-06T10:40:43.955Z,85.07
2023-01-06T10:43:13.542Z,89.43
2023-01-06T10:45:44.441Z,91.53
2023-01-06T10:48:18.135Z,95.03
2023-01-06T10:50:47.264Z,89.10
2023-01-06T10:53:15.185Z,75.07
2023-01-06T10:55:51.050Z,85.85
2023-01-06T10:58:42.293Z,105.88
2023-01-06T11:01:15.723Z,88.30
2023-01-06T11:03:44.304Z,77.55
2023-01-06T11:06:29.059Z,64.88
2023-01-06T11:08:56.276Z,60.28
2023-01-06T11:11:28.028Z,47.22
2023-01-06T11:14:04.804Z,36.75
2023-01-06T11:16:33.878Z,33.63
2023-01-06T11:19:03.185Z,35.35
2023-01-06T11:21:46.700Z,30.45
2023-01-06T11:24:21.328Z,30.90
2023-01-06T11:26:51.668Z,27.45
2023-01-06T11:29:35.404Z,24.02
2023-01-06T11:32:24.857Z,25.92
2023-01-06T11:35:19.198Z,27.00
2023-01-06T11:37:46.481Z,19.13
2023-01-06T11:40:21.175Z,18.90
2023-01-06T11:42:55.156Z,18.17
2023-01-06T11:45:30.109Z,17.58
2023-01-06T11:47:57.476Z,17.52
2023-01-06T11:50:24.358Z,17.70
2023-01-06T11:53:03.023Z,17.67
2023-01-06T11:55:30.700Z,17.38
2023-01-06T11:58:17.467Z,16.58
2023-01-06T12:01:25.863Z,17.02
2023-01-06T12:04:01.037Z,16.98
2023-01-06T12:06:43.115Z,17.33
2023-01-06T12:09:17.577Z,17.35
2023-01-06T12:11:47.807Z,18.88
2023-01-06T12:14:28.790Z,17.23
2023-01-06T12:17:18.136Z,18.23
2023-01-06T12:19:56.339Z,17.33
2023-01-06T12:22:37.422Z,17.83
2023-01-06T12:25:06.524Z,17.10
2023-01-06T12:27:45.691Z,16.52
2023-01-06T12:30:21.324Z,16.20
2023-01-06T12:32:49.341Z,17.48
2023-01-06T12:35:21.892Z,17.80
2023-01-06T12:37:54.650Z,17.20
2023-01-06T12:40:39.498Z,16.83
2023-01-06T12:43:28.370Z,17.05
2023-01-06T12:46:19.359Z,16.33
2023-01-06T12:48:54.594Z,15.95
2023-01-06T12:51:27.442Z,14.30
2023-01-06T12:54:00.294Z,15.40
2023-01-06T12:56:45.604Z,14.20
2023-01-06T12:59:30.727Z,13.90
2023-01-06T13:02:12.650Z,13.45
2023-01-06T13:04:48.375Z,13.52
2023-01-06T13:07:44.414Z,14.23
2023-01-06T13:10:26.652Z,14.43
2023-01-06T13:13:10.623Z,14.15
2023-01-06T13:15:40.717Z,14.52
2023-01-06T13:18:29.144Z,15.18
2023-01-06T13:21:11.721Z,14.68
2023-01-06T13:24:03.104Z,16.05
2023-01-06T13:26:57.112Z,16.77
2023-01-06T13:29:44.454Z,16.83
2023-01-06T13:33:09.689Z,17.75
2023-01-06T13:35:42.055Z,17.33
2023-01-06T13:38:42.071Z,17.77
2023-01-06T13:41:16.111Z,16.80
2023-01-06T13:43:44.895Z,18.15
2023-01-06T13:46:17.675Z,18.50
2023-01-06T13:48:50.207Z,18.52
2023-01-06T13:51:20.400Z,18.17
2023-01-06T13:53:50.239Z,17.88
2023-01-06T13:56:16.771Z,20.02
2023-01-06T13:58:45.474Z,19.02
2023-01-06T14:01:19.600Z,20.15
2023-01-06T14:03:50.407Z,19.70
2023-01-06T14:06:23.143Z,20.73
2023-01-06T14:08:58.785Z,21.80
2023-01-06T14:11:32.679Z,21.00
2023-01-06T14:14:08.137Z,21.00
2023-01-06T14:16:47.453Z,21.23
2023-01-06T14:19:19.522Z,22.60
2023-01-06T14:21:49.127Z,22.92
2023-01-06T14:24:25.468Z,23.55
2023-01-06T14:27:02.550Z,22.70
2023-01-06T14:29:44.266Z,22.30
2023-01-06T14:32:14.527Z,22.20
2023-01-06T14:34:50.373Z,22.38
2023-01-06T14:37:19.760Z,22.80
2023-01-06T14:39:51.749Z,22.30
2023-01-06T14:42:22.902Z,23.05
2023-01-06T14:44:53.485Z,21.75
2023-01-06T14:47:38.600Z,23.80
2023-01-06T14:50:14.379Z,22.60
2023-01-06T14:53:01.114Z,20.48
2023-01-06T14:55:31.466Z,22.33
2023-01-06T14:57:58.043Z,21.63
2023-01-06T15:00:29.807Z,21.00
2023-01-06T15:02:59.073Z,22.23
2023-01-06T15:05:30.354Z,21.63
2023-01-06T15:08:18.126Z,22.92
2023-01-06T15:10:47.218Z,22.40
2023-01-06T15:13:32.995Z,22.23
2023-01-06T15:16:09.149Z,21.17
2023-01-06T15:18:41.563Z,20.52
2023-01-06T15:21:08.441Z,20.73
2023-01-06T15:23:35.129Z,22.15
2023-01-06T15:26:01.713Z,20.00
2023-01-06T15:28:34.292Z,22.85
2023-01-06T15:31:02.287Z,20.02
2023-01-06T15:33:39.054Z,19.15
2023-01-06T15:36:07.119Z,20.02
2023-01-06T15:38:40.102Z,21.70
2023-01-06T15:41:27.133Z,22.40
2023-01-06T15:43:53.787Z,22.15
2023-01-06T15:46:20.451Z,25.20
2023-01-06T15:48:48.808Z,25.90
2023-01-06T15:51:18.615Z,34.83
2023-01-06T15:53:48.781Z,34.88
2023-01-06T15:56:21.127Z,36.13
2023-01-06T15:58:50.846Z,39.35
2023-01-06T16:01:20.444Z,40.50
2023-01-06T16:03:55.869Z,47.33
2023-01-06T16:06:37.206Z,54.65
2023-01-06T16:09:19.061Z,62.97
2023-01-06T16:12:17.805Z,70.20
2023-01-06T16:14:49.507Z,74.50
2023-01-06T16:17:33.206Z,84.10
2023-01-06T16:20:05.639Z,80.75
2023-01-06T16:22:40.858Z,73.57
2023-01-06T16:25:28.452Z,76.75
2023-01-06T16:27:57.690Z,74.90
2023-01-06T16:30:24.479Z,69.50
2023-01-06T16:32:52.839Z,66.57
2023-01-06T16:35:22.835Z,60.92
2023-01-06T16:37:50.184Z,52.67
2023-01-06T16:40:19.767Z,51.13
2023-01-06T16:42:47.012Z,45.88
2023-01-06T16:45:26.785Z,41.35
2023-01-06T16:47:55.226Z,41.75
2023-01-06T16:50:23.293Z,37.53
2023-01-06T16:53:12.426Z,35.88
2023-01-06T16:55:40.904Z,34.58
2023-01-06T16:58:17.879Z,35.15
2023-01-06T17:00:51.264Z,36.03
2023-01-06T17:03:23.867Z,34.78
2023-01-06T17:05:54.314Z,34.33
2023-01-06T17:08:41.198Z,34.03
2023-01-06T17:11:15.717Z,37.22
2023-01-06T17:14:06.016Z,38.53
2023-01-06T17:16:36.152Z,39.03
2023-01-06T17:19:14.532Z,42.75
2023-01-06T17:21:41.725Z,42.83
2023-01-06T17:24:08.287Z,46.40
2023-01-06T17:26:35.413Z,45.05
2023-01-06T17:29:03.100Z,43.80
2023-01-06T17:31:34.198Z,44.72
2023-01-06T17:34:11.031Z,43.72
2023-01-06T17:36:39.904Z,43.83
2023-01-06T17:39:18.458Z,42.97
2023-01-06T17:41:45.088Z,44.63
2023-01-06T17:44:21.929Z,45.65
2023-01-06T17:46:49.852Z,48.10
2023-01-06T17:49:19.563Z,47.55
2023-01-06T17:51:46.863Z,49.72
2023-01-06T17:54:36.775Z,48.28
2023-01-06T17:57:14.839Z,45.30
2023-01-06T17:59:42.113Z,39.88
2023-01-06T18:02:42.600Z,41.92
2023-01-06T18:05:30.636Z,40.08
2023-01-06T18:08:06.114Z,41.95
2023-01-06T18:10:37.957Z,42.55
2023-01-06T18:13:18.864Z,39.95
2023-01-06T18:15:48.043Z,39.85
2023-01-06T18:18:32.618Z,38.90
2023-01-06T18:21:04.356Z,39.67
2023-01-06T18:23:34.911Z,42.17
2023-01-06T18:26:25.829Z,42.67
2023-01-06T18:28:53.831Z,45.83
2023-01-06T18:31:22.896Z,55.63
2023-01-06T18:33:51.184Z,52.35
2023-01-06T18:36:17.775Z,53.08
2023-01-06T18:38:45.299Z,54.40
2023-01-06T18:41:13.271Z,50.60
2023-01-06T18:43:41.850Z,50.50
2023-01-06T18:46:15.476Z,47.80
2023-01-06T18:48:42.967Z,54.20
2023-01-06T18:51:19.855Z,52.45
2023-01-06T18:53:47.628Z,51.72
2023-01-06T18:56:36.591Z,55.47
2023-01-06T18:59:12.583Z,54.60
2023-01-06T19:01:46.373Z,52.53
2023-01-06T19:04:30.026Z,49.93
2023-01-06T19:07:15.373Z,51.63
2023-01-06T19:09:44.657Z,52.05
2023-01-06T19:12:41.280Z,51.35
2023-01-06T19:15:27.116Z,58.50
2023-01-06T19:17:54.502Z,59.13
2023-01-06T19:20:28.751Z,58.50
2023-01-06T19:22:56.944Z,61.47
2023-01-06T19:25:37.139Z,63.70
2023-01-06T19:28:15.606Z,59.63
2023-01-06T19:30:56.894Z,57.75
2023-01-06T19:33:38.377Z,56.28
2023-01-06T19:36:04.917Z,57.63
2023-01-06T19:38:36.983Z,56.75
2023-01-06T19:41:09.421Z,57.13
2023-01-06T19:43:36.452Z,57.22
2023-01-06T19:46:12.942Z,57.17
2023-01-06T19:48:41.404Z,59.67
2023-01-06T19:51:34.776Z,57.63
2023-01-06T19:54:04.309Z,57.65
2023-01-06T19:56:35.545Z,55.05
2023-01-06T19:59:22.078Z,55.25
2023-01-06T20:01:54.162Z,55.78
2023-01-06T20:04:26.706Z,58.15
2023-01-06T20:06:53.646Z,60.60
2023-01-06T20:09:23.366Z,67.32
2023-01-06T20:11:51.430Z,72.88
2023-01-06T20:14:19.035Z,71.88
2023-01-06T20:16:46.326Z,69.50
2023-01-06T20:19:13.849Z,69.20
2023-01-06T20:21:40.533Z,68.30
2023-01-06T20:24:07.741Z,67.63
2023-01-06T20:26:35.062Z,68.03
2023-01-06T20:29:04.252Z,66.93
2023-01-06T20:31:31.656Z,66.95
2023-01-06T20:33:58.549Z,67.38
2023-01-06T20:36:25.193Z,67.00
2023-01-06T20:38:51.810Z,72.97
2023-01-06T20:41:18.800Z,71.07
2023-01-06T20:43:45.372Z,74.35
2023-01-06T20:46:13.506Z,70.60
2023-01-06T20:48:41.179Z,68.47
2023-01-06T20:51:08.291Z,65.70
2023-01-06T20:53:34.828Z,68.80
2023-01-06T20:56:01.483Z,71.03
2023-01-06T20:58:28.071Z,70.47
2023-01-06T21:00:54.686Z,71.05
2023-01-06T21:03:21.286Z,70.82
2023-01-06T21:05:47.907Z,69.47
2023-01-06T21:08:14.541Z,75.10
2023-01-06T21:10:41.176Z,66.68
2023-01-06T21:13:07.741Z,66.10
2023-01-06T21:15:34.317Z,67.35
2023-01-06T21:18:00.973Z,69.65
2023-01-06T21:20:27.718Z,70.40
2023-01-06T21:22:54.363Z,73.05
2023-01-06T21:25:20.978Z,69.97
2023-01-06T21:27:47.604Z,70.32
2023-01-06T21:30:14.537Z,71.32
2023-01-06T21:32:41.114Z,67.50
2023-01-06T21:35:08.064Z,66.50
2023-01-06T21:37:34.611Z,66.78
2023-01-06T21:40:02.932Z,67.85
2023-01-06T21:42:47.660Z,66.15
2023-01-06T21:45:14.234Z,68.32
2023-01-06T21:47:40.785Z,69.45
2023-01-06T21:50:09.401Z,69.35
2023-01-06T21:52:36.323Z,71.18
2023-01-06T21:55:03.055Z,74.10
2023-01-06T21:57:29.667Z,72.97
2023-01-06T21:59:56.229Z,80.43
2023-01-06T22:02:22.975Z,79.63
2023-01-06T22:04:52.250Z,77.10
2023-01-06T22:07:19.768Z,83.15
2023-01-06T22:09:46.427Z,81.07
2023-01-06T22:12:16.092Z,79.72
2023-01-06T22:14:43.675Z,78.85
2023-01-06T22:17:10.943Z,77.30
2023-01-06T22:19:38.589Z,74.03
2023-01-06T22:22:06.621Z,75.53
2023-01-06T22:24:34.989Z,77.50
2023-01-06T22:27:01.602Z,72.63
2023-01-06T22:29:28.155Z,74.28
2023-01-06T22:31:54.912Z,74.38
2023-01-06T22:34:21.510Z,72.00
2023-01-06T22:36:48.077Z,72.32
2023-01-06T22:39:14.711Z,72.97
2023-01-06T22:41:41.305Z,74.90
2023-01-06T22:44:08.279Z,72.95
2023-01-06T22:46:34.893Z,71.43
2023-01-06T22:49:01.547Z,73.65
2023-01-06T22:51:28.662Z,66.38
2023-01-06T22:53:55.642Z,65.72
2023-01-06T22:56:22.190Z,64.10
2023-01-06T22:58:48.860Z,61.28
2023-01-06T23:01:15.595Z,59.78
2023-01-06T23:03:42.268Z,59.17
2023-01-06T23:06:11.612Z,58.63
2023-01-06T23:08:48.109Z,58.70
2023-01-06T23:11:22.514Z,53.05
2023-01-06T23:13:49.232Z,55.55
2023-01-06T23:16:19.093Z,54.72
2023-01-06T23:18:47.758Z,55.72
2023-01-06T23:21:21.905Z,54.42
2023-01-06T23:23:49.424Z,54.00
2023-01-06T23:26:23.473Z,51.80
2023-01-06T23:28:51.425Z,51.10
2023-01-06T23:31:21.240Z,50.20
2023-01-06T23:33:50.275Z,48.80
2023-01-06T23:36:18.738Z,50.60
2023-01-06T23:38:46.109Z,52.50
2023-01-06T23:41:18.097Z,49.28
2023-01-06T23:43:45.052Z,48.88
2023-01-06T23:46:14.969Z,49.05
2023-01-06T23:48:42.018Z,46.78
2023-01-06T23:51:10.102Z,44.75
2023-01-06T23:53:37.832Z,45.65
2023-01-06T23:56:17.418Z,43.78
2023-01-06T23:58:45.937Z,42.15
